Time;durP1;ratioP1;P1;durP2;ratioP2;P2;SDS_P1;SDS_P2;PMS_P1;PMS_P2;Temp;Humidity;BMP_temperature;BMP_pressure;BME280_temperature;BME280_humidity;BME280_pressure;Samples;Min_cycle;Max_cycle;Signal;HPM_P1;HPM_P2
2021/07/20 00:00:36;;;;;;;11.38;6.90;;;24.60;99.90;;;;;;5014918;28;20503;-46
2021/07/20 00:03:09;;;;;;;11.23;8.15;;;24.60;99.90;;;;;;5014835;28;20561;-46
2021/07/20 00:05:39;;;;;;;11.18;7.57;;;24.60;99.90;;;;;;5014582;28;20054;-46
2021/07/20 00:08:10;;;;;;;12.48;7.38;;;24.60;99.90;;;;;;5014626;28;20049;-47
2021/07/20 00:10:56;;;;;;;10.15;7.57;;;24.50;99.90;;;;;;5014846;28;20050;-47
2021/07/20 00:13:25;;;;;;;9.13;6.93;;;24.50;99.90;;;;;;4996732;28;20112;-46
2021/07/20 00:15:55;;;;;;;9.00;6.70;;;24.50;99.90;;;;;;5014479;28;20053;-48
2021/07/20 00:18:27;;;;;;;11.40;7.88;;;24.50;99.90;;;;;;5013180;28;20050;-49
2021/07/20 00:20:56;;;;;;;10.65;7.10;;;24.50;99.90;;;;;;5014484;28;20052;-47
2021/07/20 00:23:26;;;;;;;10.65;7.47;;;24.40;99.90;;;;;;5014664;28;20034;-47
2021/07/20 00:25:55;;;;;;;11.02;7.22;;;24.40;99.90;;;;;;5014396;28;20049;-50
2021/07/20 00:28:23;;;;;;;11.00;7.03;;;24.40;99.90;;;;;;5014346;28;20045;-46
2021/07/20 00:30:52;;;;;;;10.13;7.10;;;24.40;99.90;;;;;;5014207;28;20046;-47
2021/07/20 00:33:23;;;;;;;11.50;7.10;;;24.40;99.90;;;;;;5014233;28;20038;-46
2021/07/20 00:35:50;;;;;;;10.40;7.10;;;24.40;99.90;;;;;;5014216;28;20049;-47
2021/07/20 00:38:20;;;;;;;11.55;7.25;;;24.30;99.90;;;;;;5014020;28;20562;-46
2021/07/20 00:40:53;;;;;;;11.85;7.75;;;24.30;99.90;;;;;;4981336;28;20077;-46
2021/07/20 00:43:21;;;;;;;10.20;7.45;;;24.30;99.90;;;;;;5014036;28;20061;-49
2021/07/20 00:45:49;;;;;;;9.27;6.82;;;24.30;99.90;;;;;;4996790;28;20124;-46
2021/07/20 00:48:18;;;;;;;11.43;7.75;;;24.30;99.90;;;;;;5013899;28;20050;-47
2021/07/20 00:50:52;;;;;;;9.23;6.50;;;24.30;99.90;;;;;;5012757;28;20046;-47
2021/07/20 00:53:23;;;;;;;10.57;6.97;;;24.30;99.90;;;;;;5012967;28;20064;-47
2021/07/20 00:56:01;;;;;;;11.18;7.20;;;24.30;99.90;;;;;;5012694;28;20038;-47
2021/07/20 00:58:33;;;;;;;10.60;7.50;;;24.30;99.90;;;;;;5012438;28;20089;-47
2021/07/20 01:01:01;;;;;;;11.73;6.80;;;24.30;99.90;;;;;;5013409;28;20140;-47
2021/07/20 01:03:33;;;;;;;13.13;8.32;;;24.20;99.90;;;;;;5014181;28;20046;-48
2021/07/20 01:06:06;;;;;;;9.00;7.07;;;24.30;99.90;;;;;;5012873;28;20050;-49
2021/07/20 01:08:35;;;;;;;13.57;6.68;;;24.20;99.90;;;;;;5012585;28;20042;-46
2021/07/20 01:11:03;;;;;;;8.15;6.10;;;24.20;99.90;;;;;;5012420;28;20046;-46
2021/07/20 01:13:33;;;;;;;8.98;5.45;;;24.20;99.90;;;;;;5012562;28;20080;-47
2021/07/20 01:16:06;;;;;;;10.68;5.72;;;24.20;99.90;;;;;;5014066;28;20042;-47
2021/07/20 01:18:39;;;;;;;7.00;4.95;;;24.20;99.90;;;;;;5013797;28;20500;-46
2021/07/20 01:21:10;;;;;;;8.65;6.00;;;24.20;99.90;;;;;;5013504;28;20053;-46
2021/07/20 01:23:44;;;;;;;9.32;5.65;;;24.20;99.90;;;;;;5013699;28;20069;-46
2021/07/20 01:26:14;;;;;;;8.63;5.47;;;24.20;99.90;;;;;;5012666;28;20048;-46
2021/07/20 01:28:46;;;;;;;9.45;5.38;;;24.20;99.90;;;;;;5012468;28;20132;-47
2021/07/20 01:31:22;;;;;;;7.55;4.57;;;24.20;99.90;;;;;;5012440;28;20062;-49
2021/07/20 01:33:56;;;;;;;6.28;4.68;;;24.20;99.90;;;;;;5012500;28;20041;-46
2021/07/20 01:36:32;;;;;;;6.18;5.13;;;24.30;99.90;;;;;;5013429;28;20042;-46
2021/07/20 01:39:03;;;;;;;10.15;6.25;;;24.30;99.90;;;;;;5013483;28;20456;-46
2021/07/20 01:41:34;;;;;;;8.35;5.63;;;24.30;99.90;;;;;;5013630;28;20045;-46
2021/07/20 01:44:09;;;;;;;7.85;5.30;;;24.20;99.90;;;;;;5013554;28;20077;-46
2021/07/20 01:46:40;;;;;;;9.85;5.78;;;24.20;99.90;;;;;;5012408;28;20045;-46
2021/07/20 01:49:16;;;;;;;8.52;5.47;;;24.20;99.90;;;;;;4996220;28;20492;-47
2021/07/20 01:51:50;;;;;;;8.40;6.10;;;24.20;99.90;;;;;;5012507;28;20038;-50
2021/07/20 01:54:21;;;;;;;6.90;5.43;;;24.20;99.90;;;;;;5013488;28;20053;-47
2021/07/20 01:56:50;;;;;;;10.85;5.70;;;24.10;99.90;;;;;;5013296;28;20041;-47
2021/07/20 01:59:24;;;;;;;12.80;6.35;;;24.10;99.90;;;;;;5011951;28;20144;-46
2021/07/20 02:02:15;;;;;;;7.07;5.45;;;24.10;99.90;;;;;;5012146;28;20042;-46
2021/07/20 02:10:43;;;;;;;7.45;4.65;;;24.10;99.90;;;;;;5012346;28;20045;-46
2021/07/20 02:13:42;;;;;;;9.88;4.82;;;24.00;99.90;;;;;;5015850;28;20045;-47
2021/07/20 02:16:47;;;;;;;9.50;4.82;;;24.10;99.90;;;;;;5014784;28;20088;-48
2021/07/20 02:19:40;;;;;;;10.65;4.68;;;24.10;99.90;;;;;;5016200;28;20133;-47
2021/07/20 02:22:19;;;;;;;8.70;4.75;;;24.10;99.90;;;;;;5015463;28;20373;-47
2021/07/20 02:24:51;;;;;;;8.07;5.25;;;24.10;99.90;;;;;;5015400;28;20492;-46
2021/07/20 02:27:22;;;;;;;6.72;5.28;;;24.10;99.90;;;;;;4999100;28;20516;-48
2021/07/20 02:30:14;;;;;;;6.78;5.20;;;24.00;99.90;;;;;;5015395;28;20493;-47
2021/07/20 02:32:46;;;;;;;8.10;5.18;;;24.00;99.90;;;;;;5015453;28;20038;-46
2021/07/20 02:35:23;;;;;;;8.48;6.03;;;24.00;99.90;;;;;;5016354;28;20524;-47
2021/07/20 02:37:53;;;;;;;7.07;5.93;;;24.00;99.90;;;;;;5015233;28;20046;-47
2021/07/20 02:40:25;;;;;;;8.18;5.90;;;24.00;99.90;;;;;;5016225;28;20504;-47
2021/07/20 02:42:56;;;;;;;8.35;5.60;;;23.90;99.90;;;;;;5016204;28;20623;-46
2021/07/20 02:45:26;;;;;;;8.30;5.15;;;23.90;99.90;;;;;;5015034;28;20133;-46
2021/07/20 02:47:57;;;;;;;8.68;5.82;;;23.90;99.90;;;;;;5015045;28;20045;-46
2021/07/20 02:50:30;;;;;;;6.82;6.07;;;23.80;99.90;;;;;;5016254;28;20061;-46
2021/07/20 02:53:15;;;;;;;;;;;23.90;99.90;;;;;;5015366;28;20125;-45
2021/07/20 02:55:53;;;;;;;7.22;5.20;;;23.80;99.90;;;;;;5016151;28;19944;-46
2021/07/20 02:58:23;;;;;;;9.70;5.57;;;23.80;99.90;;;;;;5014713;28;20450;-46
2021/07/20 03:00:56;;;;;;;8.60;6.03;;;23.80;99.90;;;;;;5016251;28;20046;-49
2021/07/20 03:03:24;;;;;;;9.00;6.63;;;23.80;99.90;;;;;;5015971;28;20073;-51
2021/07/20 03:05:59;;;;;;;7.95;5.50;;;23.80;99.90;;;;;;5015803;28;20102;-50
2021/07/20 03:08:30;;;;;;;11.00;7.07;;;23.70;99.90;;;;;;5015969;28;20038;-47
2021/07/20 03:11:14;;;;;;;7.57;5.57;;;23.70;99.90;;;;;;5000224;28;20485;-46
2021/07/20 03:13:50;;;;;;;9.77;5.97;;;23.70;99.90;;;;;;4982672;28;20046;-48
2021/07/20 03:16:21;;;;;;;10.95;6.63;;;23.70;99.90;;;;;;5014506;28;20042;-46
2021/07/20 03:18:52;;;;;;;9.18;5.88;;;23.70;99.90;;;;;;5014590;28;20496;-46
2021/07/20 03:21:21;;;;;;;10.65;6.53;;;23.70;99.90;;;;;;5014295;28;20077;-51
2021/07/20 03:23:50;;;;;;;12.10;5.82;;;23.60;99.90;;;;;;5014045;28;20041;-49
2021/07/20 03:26:20;;;;;;;6.72;5.72;;;23.60;99.90;;;;;;5014264;28;20492;-50
2021/07/20 03:28:51;;;;;;;11.77;6.38;;;23.60;99.90;;;;;;5014421;28;20100;-46
2021/07/20 03:31:19;;;;;;;10.45;6.38;;;23.60;99.90;;;;;;4997872;28;20566;-46
2021/07/20 03:33:54;;;;;;;9.57;5.90;;;23.60;99.90;;;;;;5014255;28;20096;-47
2021/07/20 03:36:29;;;;;;;8.80;5.30;;;23.60;99.90;;;;;;5015236;28;20038;-48
2021/07/20 03:39:00;;;;;;;8.45;5.35;;;23.60;99.90;;;;;;5013964;28;20392;-46
2021/07/20 03:41:30;;;;;;;7.55;5.93;;;23.60;99.90;;;;;;4997685;28;20492;-50
2021/07/20 03:43:59;;;;;;;8.80;5.72;;;23.60;99.90;;;;;;5015263;28;20050;-47
2021/07/20 03:46:30;;;;;;;9.05;5.50;;;23.60;99.90;;;;;;5013936;28;20096;-47
2021/07/20 03:48:58;;;;;;;9.13;5.57;;;23.60;99.90;;;;;;5015049;28;20096;-46
2021/07/20 03:51:42;;;;;;;11.00;5.18;;;23.60;99.90;;;;;;5013834;28;20050;-46
2021/07/20 03:54:12;;;;;;;10.23;6.10;;;23.60;99.90;;;;;;5014895;28;20042;-46
2021/07/20 03:56:41;;;;;;;10.65;6.15;;;23.60;99.90;;;;;;5013695;28;20484;-46
2021/07/20 03:59:13;;;;;;;16.05;6.60;;;23.60;99.90;;;;;;5013551;28;20500;-46
2021/07/20 04:02:07;;;;;;;9.57;5.78;;;23.60;99.90;;;;;;5014861;28;20133;-47
2021/07/20 04:04:37;;;;;;;;;;;23.50;99.90;;;;;;5014130;28;20050;-47
2021/07/20 04:07:17;;;;;;;8.15;4.63;;;23.50;99.90;;;;;;5014828;28;19928;-46
2021/07/20 04:10:20;;;;;;;7.65;4.85;;;23.50;99.90;;;;;;5012497;28;20049;-46
2021/07/20 04:13:20;;;;;;;11.20;5.47;;;23.50;99.90;;;;;;4991933;28;20511;-51
2021/07/20 04:16:08;;;;;;;12.13;6.47;;;23.50;99.90;;;;;;5014359;28;20450;-51
2021/07/20 04:18:38;;;;;;;8.40;5.60;;;23.50;99.90;;;;;;5014680;28;20123;-48
2021/07/20 04:21:11;;;;;;;10.70;6.22;;;23.50;99.90;;;;;;5013478;28;20034;-52
2021/07/20 04:23:39;;;;;;;8.05;5.75;;;23.50;99.90;;;;;;5014389;28;20049;-51
2021/07/20 04:26:15;;;;;;;7.97;5.35;;;23.60;99.90;;;;;;5014584;28;20085;-50
2021/07/20 04:28:44;;;;;;;9.68;5.35;;;23.50;99.90;;;;;;5013356;28;20136;-47
2021/07/20 04:31:20;;;;;;;6.28;4.20;;;23.60;99.90;;;;;;5013083;28;20073;-48
2021/07/20 04:33:50;;;;;;;8.45;4.80;;;23.50;99.90;;;;;;5013066;28;20049;-47
2021/07/20 04:36:39;;;;;;;9.48;4.95;;;23.50;99.90;;;;;;5013333;28;20471;-47
2021/07/20 04:39:20;;;;;;;7.63;4.90;;;23.50;99.90;;;;;;5013223;28;20038;-46
2021/07/20 04:41:54;;;;;;;6.20;4.00;;;23.60;99.90;;;;;;5014347;28;20041;-47
2021/07/20 04:44:22;;;;;;;8.30;4.50;;;23.60;99.90;;;;;;5012945;28;20049;-46
2021/07/20 04:47:10;;;;;;;8.75;4.78;;;23.80;99.90;;;;;;5010262;28;20136;-46
2021/07/20 04:49:42;;;;;;;9.77;5.22;;;23.90;99.90;;;;;;5012942;28;20096;-47
2021/07/20 04:52:12;;;;;;;7.50;4.47;;;24.10;99.90;;;;;;5012796;28;20080;-47
2021/07/20 04:54:42;;;;;;;7.53;4.05;;;24.30;99.90;;;;;;5013999;28;20046;-46
2021/07/20 04:57:11;;;;;;;8.38;4.78;;;24.40;99.90;;;;;;4980590;28;20053;-47
2021/07/20 04:59:40;;;;;;;11.40;4.68;;;24.50;99.90;;;;;;5013976;28;20058;-47
2021/07/20 05:02:14;;;;;;;7.90;4.65;;;24.70;99.90;;;;;;4997037;28;20044;-47
2021/07/20 05:04:48;;;;;;;7.78;5.28;;;24.90;99.90;;;;;;5012837;28;20125;-47
2021/07/20 05:07:19;;;;;;;9.68;5.47;;;25.00;99.90;;;;;;5013869;28;20049;-46
2021/07/20 05:09:54;;;;;;;9.65;4.97;;;25.20;99.90;;;;;;5013933;28;20497;-46
2021/07/20 05:12:24;;;;;;;7.43;4.20;;;25.40;99.90;;;;;;5013881;28;20053;-46
2021/07/20 05:15:00;;;;;;;6.53;3.95;;;25.50;99.90;;;;;;5013802;28;20081;-47
2021/07/20 05:17:35;;;;;;;7.05;4.05;;;25.70;99.90;;;;;;5012393;28;20141;-47
2021/07/20 05:20:05;;;;;;;6.43;4.30;;;25.80;99.90;;;;;;5012377;28;20504;-46
2021/07/20 05:23:00;;;;;;;6.50;4.50;;;26.00;99.90;;;;;;5012724;28;20037;-47
2021/07/20 05:25:28;;;;;;;6.72;3.65;;;26.10;99.90;;;;;;5013667;28;20400;-48
2021/07/20 05:27:59;;;;;;;7.72;4.00;;;26.20;99.90;;;;;;5012530;28;20050;-52
2021/07/20 05:30:30;;;;;;;6.55;4.82;;;26.40;99.90;;;;;;5012464;28;20038;-51
2021/07/20 05:33:02;;;;;;;5.80;3.13;;;26.50;99.90;;;;;;5013832;28;20042;-49
2021/07/20 05:35:39;;;;;;;9.02;4.68;;;26.60;99.90;;;;;;5012443;28;20084;-48
2021/07/20 05:38:08;;;;;;;6.65;4.15;;;26.80;99.90;;;;;;5012222;28;20046;-49
2021/07/20 05:40:40;;;;;;;7.72;3.92;;;26.90;99.90;;;;;;4997019;28;20374;-49
2021/07/20 05:43:10;;;;;;;6.88;4.35;;;27.10;99.90;;;;;;5013419;28;20069;-49
2021/07/20 05:45:43;;;;;;;6.18;3.55;;;27.20;99.90;;;;;;5012346;28;20046;-51
2021/07/20 05:48:18;;;;;;;12.45;4.40;;;27.40;99.90;;;;;;5016311;28;20068;-48
2021/07/20 05:50:56;;;;;;;9.80;4.45;;;27.40;99.90;;;;;;5016129;28;20125;-48
2021/07/20 05:53:37;;;;;;;7.75;3.83;;;27.60;99.90;;;;;;5017234;28;20038;-47
2021/07/20 05:56:35;;;;;;;6.82;4.55;;;27.80;99.90;;;;;;5016677;28;20073;-46
2021/07/20 05:59:27;;;;;;;4.53;3.03;;;27.90;99.90;;;;;;5019315;28;20065;-47
2021/07/20 06:02:05;;;;;;;5.60;3.90;;;28.00;99.70;;;;;;5015747;28;20393;-48
2021/07/20 06:04:42;;;;;;;6.50;3.55;;;28.10;99.70;;;;;;5017169;28;20046;-52
2021/07/20 06:07:13;;;;;;;7.40;3.90;;;28.20;99.70;;;;;;5016990;28;20046;-47
2021/07/20 06:09:46;;;;;;;6.15;3.20;;;28.30;99.40;;;;;;5017088;28;20038;-47
2021/07/20 06:12:16;;;;;;;5.30;3.38;;;28.50;99.40;;;;;;5016926;28;20038;-48
2021/07/20 06:14:46;;;;;;;7.45;3.47;;;28.60;99.20;;;;;;5017050;28;20050;-48
2021/07/20 06:17:14;;;;;;;7.45;4.00;;;28.70;98.90;;;;;;5015447;28;20069;-48
2021/07/20 06:19:42;;;;;;;5.75;3.30;;;28.80;98.80;;;;;;5016818;28;20069;-47
2021/07/20 06:22:11;;;;;;;7.68;4.22;;;28.90;98.60;;;;;;5015593;28;20068;-47
2021/07/20 06:24:52;;;;;;;7.00;3.50;;;29.00;98.60;;;;;;5000918;28;20042;-51
2021/07/20 06:27:22;;;;;;;6.15;4.10;;;29.10;98.20;;;;;;5016636;28;20492;-51
2021/07/20 06:29:55;;;;;;;5.90;3.42;;;29.20;98.20;;;;;;5015460;28;20133;-51
2021/07/20 06:32:25;;;;;;;5.50;3.83;;;29.30;98.00;;;;;;5016513;28;20510;-51
2021/07/20 06:35:15;;;;;;;7.35;3.72;;;29.50;97.90;;;;;;5015255;28;20030;-48
2021/07/20 06:37:47;;;;;;;4.35;3.30;;;29.60;98.00;;;;;;5016269;28;20050;-49
2021/07/20 06:40:32;;;;;;;8.98;4.60;;;29.50;97.50;;;;;;5016363;28;20049;-48
2021/07/20 06:43:00;;;;;;;7.90;3.88;;;29.50;97.50;;;;;;5014962;28;20042;-52
2021/07/20 06:45:30;;;;;;;7.53;3.60;;;29.50;97.50;;;;;;5016345;28;20117;-48
2021/07/20 06:48:01;;;;;;;8.23;3.85;;;29.50;97.20;;;;;;5016181;28;20065;-50
2021/07/20 06:50:29;;;;;;;8.38;3.65;;;29.40;97.40;;;;;;5016117;28;20046;-52
2021/07/20 06:52:57;;;;;;;7.50;3.78;;;29.40;97.30;;;;;;5016254;28;20050;-53
2021/07/20 06:55:26;;;;;;;5.03;4.15;;;29.50;97.20;;;;;;5016108;28;20500;-52
2021/07/20 06:57:54;;;;;;;5.35;3.60;;;29.40;97.00;;;;;;5015837;28;20177;-50
2021/07/20 07:00:22;;;;;;;9.95;4.68;;;29.40;97.20;;;;;;5015042;28;20046;-52
2021/07/20 07:02:57;;;;;;;6.53;3.80;;;29.30;97.30;;;;;;5015900;28;20081;-49
2021/07/20 07:05:29;;;;;;;7.55;4.68;;;29.10;97.50;;;;;;5016283;28;20074;-53
2021/07/20 07:08:00;;;;;;;6.30;3.88;;;28.80;97.60;;;;;;5015819;28;20185;-49
2021/07/20 07:10:27;;;;;;;5.53;4.05;;;28.50;98.00;;;;;;5015974;28;20042;-49
2021/07/20 07:12:56;;;;;;;6.22;3.90;;;28.40;98.10;;;;;;4998327;28;20169;-52
2021/07/20 07:15:24;;;;;;;6.13;4.13;;;28.40;98.20;;;;;;5015719;28;20045;-50
2021/07/20 07:17:55;;;;;;;5.93;3.40;;;28.60;98.10;;;;;;5015741;28;20180;-51
2021/07/20 07:20:27;;;;;;;6.75;4.15;;;28.70;97.70;;;;;;5015665;28;20046;-50
2021/07/20 07:22:55;;;;;;;8.73;4.28;;;29.10;97.40;;;;;;5015526;28;20053;-52
2021/07/20 07:25:23;;;;;;;7.47;3.58;;;29.50;96.90;;;;;;5014332;28;20054;-53
2021/07/20 07:27:53;;;;;;;6.75;3.90;;;29.60;96.30;;;;;;5015401;28;20064;-48
2021/07/20 07:30:22;;;;;;;7.95;3.75;;;29.60;96.20;;;;;;5015574;28;20050;-50
2021/07/20 07:32:50;;;;;;;6.32;4.10;;;29.60;95.90;;;;;;5015385;28;20053;-48
2021/07/20 07:35:18;;;;;;;5.07;3.25;;;29.40;96.20;;;;;;5014113;28;20036;-47
2021/07/20 07:37:49;;;;;;;6.20;3.78;;;29.20;96.30;;;;;;5015197;28;20073;-47
2021/07/20 07:40:17;;;;;;;6.97;3.90;;;29.10;96.40;;;;;;5015189;28;20124;-48
2021/07/20 07:42:45;;;;;;;5.70;3.60;;;29.00;96.40;;;;;;5015283;28;20392;-47
2021/07/20 07:45:14;;;;;;;4.97;3.88;;;28.80;96.50;;;;;;5015088;28;20507;-47
2021/07/20 07:47:43;;;;;;;7.35;4.45;;;28.70;96.70;;;;;;5015136;28;20050;-48
2021/07/20 07:50:12;;;;;;;7.95;4.70;;;28.60;96.80;;;;;;5013789;28;20053;-47
2021/07/20 07:52:40;;;;;;;7.50;4.53;;;28.80;96.70;;;;;;5015074;28;20096;-48
2021/07/20 07:55:09;;;;;;;11.18;5.60;;;29.00;96.40;;;;;;5014839;28;20046;-51
2021/07/20 07:57:38;;;;;;;8.07;4.20;;;29.20;95.90;;;;;;5014946;28;20049;-49
2021/07/20 08:00:07;;;;;;;6.15;4.22;;;29.20;95.70;;;;;;5014704;28;20492;-47
2021/07/20 08:02:46;;;;;;;5.80;3.88;;;29.20;95.60;;;;;;5014865;28;20052;-49
2021/07/20 08:05:15;;;;;;;6.90;4.13;;;29.60;95.40;;;;;;5014931;28;20045;-48
2021/07/20 08:07:43;;;;;;;5.50;4.05;;;29.60;94.10;;;;;;5014605;28;20045;-47
2021/07/20 08:10:12;;;;;;;5.68;3.92;;;29.50;94.10;;;;;;5014674;28;20038;-49
2021/07/20 08:12:43;;;;;;;7.45;4.18;;;29.50;94.50;;;;;;5014721;28;20069;-48
2021/07/20 08:15:14;;;;;;;9.35;4.55;;;29.40;95.30;;;;;;5014692;28;20092;-46
2021/07/20 08:17:43;;;;;;;6.05;3.35;;;29.60;95.80;;;;;;5014528;28;20049;-49
2021/07/20 08:20:14;;;;;;;5.97;3.50;;;29.70;96.10;;;;;;5014341;28;20139;-52
2021/07/20 08:22:42;;;;;;;5.65;3.88;;;30.00;95.70;;;;;;5012436;28;20492;-50
2021/07/20 08:25:33;;;;;;;8.27;3.40;;;30.20;95.40;;;;;;5012278;28;20137;-51
2021/07/20 08:28:09;;;;;;;3.17;2.40;;;30.10;94.80;;;;;;5013442;28;20056;-48
2021/07/20 08:30:41;;;;;;;3.65;2.33;;;30.00;92.30;;;;;;5013504;28;20053;-47
2021/07/20 08:33:20;;;;;;;3.67;2.65;;;29.90;92.10;;;;;;5013485;28;20053;-47
2021/07/20 08:35:49;;;;;;;3.80;2.40;;;30.00;92.70;;;;;;5013520;28;20400;-49
2021/07/20 08:38:20;;;;;;;3.97;2.30;;;30.00;92.70;;;;;;5013087;28;20103;-48
2021/07/20 08:40:49;;;;;;;4.35;2.63;;;30.10;93.10;;;;;;5012081;28;20366;-49
2021/07/20 08:43:52;;;;;;;6.68;3.03;;;30.10;93.10;;;;;;5013200;28;20041;-48
2021/07/20 08:46:27;;;;;;;3.92;2.92;;;30.20;93.20;;;;;;5014830;28;20050;-47
2021/07/20 08:49:25;;;;;;;4.40;2.65;;;30.10;92.80;;;;;;5012246;28;20026;-47
2021/07/20 08:51:59;;;;;;;4.07;3.10;;;30.30;92.80;;;;;;5012009;28;20076;-49
2021/07/20 08:54:50;;;;;;;6.32;2.80;;;30.30;92.40;;;;;;5013238;28;20046;-50
2021/07/20 08:57:48;;;;;;;7.05;2.80;;;30.40;91.80;;;;;;5011622;28;20084;-49
2021/07/20 09:00:39;;;;;;;4.47;2.70;;;30.50;91.90;;;;;;5011790;28;20053;-49
2021/07/20 09:03:24;;;;;;;;;;;30.60;92.00;;;;;;5013542;28;20433;-53
2021/07/20 09:06:03;;;;;;;8.25;3.20;;;30.70;92.30;;;;;;5012020;28;19921;-49
2021/07/20 09:08:35;;;;;;;4.90;2.47;;;30.80;92.30;;;;;;5013040;28;20046;-50
2021/07/20 09:11:22;;;;;;;5.15;3.42;;;30.80;91.80;;;;;;5011527;28;20050;-50
2021/07/20 09:14:24;;;;;;;5.68;3.95;;;31.00;91.70;;;;;;5011677;28;20049;-48
2021/07/20 09:17:01;;;;;;;3.22;2.47;;;30.80;91.50;;;;;;5011637;28;20515;-49
2021/07/20 09:19:39;;;;;;;6.00;3.83;;;30.90;91.40;;;;;;5013217;28;20057;-47
2021/07/20 09:22:13;;;;;;;5.05;2.50;;;30.90;90.90;;;;;;5012633;28;20072;-50
2021/07/20 09:25:11;;;;;;;3.67;2.58;;;30.90;90.80;;;;;;5016995;28;20038;-48
2021/07/20 09:28:09;;;;;;;4.38;2.70;;;31.00;90.90;;;;;;5016741;28;20060;-47
2021/07/20 09:30:41;;;;;;;3.28;2.17;;;31.10;90.90;;;;;;5017280;28;20057;-47
2021/07/20 09:33:37;;;;;;;3.80;2.50;;;30.90;89.30;;;;;;4999042;28;20073;-49
2021/07/20 09:36:20;;;;;;;3.72;2.58;;;30.90;89.10;;;;;;5015601;28;20472;-51
2021/07/20 09:39:19;;;;;;;6.65;2.95;;;30.80;89.50;;;;;;5016642;28;20085;-51
2021/07/20 09:41:51;;;;;;;5.22;2.58;;;30.60;90.00;;;;;;5016712;28;20050;-49
2021/07/20 09:44:50;;;;;;;3.15;2.38;;;30.50;89.20;;;;;;5016813;28;20141;-51
2021/07/20 09:47:41;;;;;;;3.75;2.45;;;30.20;89.80;;;;;;5017122;28;20081;-51
2021/07/20 09:50:16;;;;;;;5.43;2.97;;;29.90;90.50;;;;;;5017283;28;20049;-50
2021/07/20 09:53:28;;;;;;;4.32;2.95;;;29.60;91.20;;;;;;5017665;28;20041;-48
2021/07/20 09:56:16;;;;;;;6.15;4.63;;;29.50;91.70;;;;;;5034940;28;20500;-49
2021/07/20 09:59:11;;;;;;;6.10;3.40;;;29.40;92.70;;;;;;5034542;28;20072;-48
2021/07/20 10:02:00;;;;;;;5.72;3.58;;;29.30;93.20;;;;;;5020227;28;20063;-47
2021/07/20 10:04:42;;;;;;;8.48;3.70;;;29.20;94.50;;;;;;5017080;28;20121;-50
2021/07/20 10:07:23;;;;;;;14.00;4.50;;;29.00;94.40;;;;;;5015685;28;20053;-48
2021/07/20 10:10:12;;;;;;;8.60;4.18;;;28.80;95.00;;;;;;5016980;28;20149;-48
2021/07/20 10:13:04;;;;;;;7.68;4.05;;;28.70;96.60;;;;;;5017068;28;20041;-47
2021/07/20 10:15:55;;;;;;;6.20;4.18;;;28.60;96.40;;;;;;5025338;28;20100;-49
2021/07/20 10:18:46;;;;;;;4.90;3.30;;;28.50;96.50;;;;;;5015725;28;20053;-54
2021/07/20 10:21:20;;;;;;;5.43;3.70;;;28.50;96.10;;;;;;5016846;28;20049;-51
2021/07/20 10:24:00;;;;;;;9.77;4.80;;;28.40;96.20;;;;;;5016712;28;20048;-48
2021/07/20 10:26:35;;;;;;;6.70;3.58;;;28.50;96.00;;;;;;5016699;28;20046;-49
2021/07/20 10:29:40;;;;;;;5.95;3.25;;;28.50;96.20;;;;;;5016623;28;20133;-49
2021/07/20 10:32:22;;;;;;;6.43;3.90;;;28.40;96.00;;;;;;5016439;28;20100;-48
2021/07/20 10:34:57;;;;;;;6.10;3.60;;;28.50;95.80;;;;;;5015498;28;20046;-49
2021/07/20 10:37:30;;;;;;;6.45;3.47;;;28.70;95.70;;;;;;5016430;28;20050;-50
2021/07/20 10:40:12;;;;;;;4.75;3.30;;;28.80;95.00;;;;;;5016406;28;20069;-50
2021/07/20 10:42:53;;;;;;;6.45;3.65;;;29.00;94.70;;;;;;5016240;28;20046;-60
2021/07/20 10:45:23;;;;;;;6.43;3.92;;;29.20;94.30;;;;;;5016352;28;20046;-46
2021/07/20 10:48:13;;;;;;;5.22;3.35;;;29.20;94.20;;;;;;5016403;28;20042;-46
2021/07/20 10:51:15;;;;;;;6.20;4.05;;;29.40;94.40;;;;;;5016169;28;20049;-46
2021/07/20 10:54:10;;;;;;;5.32;3.78;;;29.40;94.50;;;;;;5016153;28;20124;-49
2021/07/20 10:56:53;;;;;;;4.97;3.50;;;29.30;94.30;;;;;;5016112;28;20050;-49
2021/07/20 10:59:49;;;;;;;5.97;3.58;;;29.40;94.50;;;;;;5016126;28;20054;-46
2021/07/20 11:02:40;;;;;;;6.77;3.93;;;29.50;94.30;;;;;;5016055;28;20045;-46
2021/07/20 11:05:09;;;;;;;7.68;3.55;;;29.40;94.10;;;;;;5015849;28;20500;-46
2021/07/20 11:08:01;;;;;;;5.32;3.75;;;29.50;94.30;;;;;;5015845;28;20038;-47
2021/07/20 11:10:34;;;;;;;6.05;3.65;;;29.40;94.10;;;;;;5016225;28;20077;-47
2021/07/20 11:13:14;;;;;;;5.20;3.42;;;29.40;94.00;;;;;;5015807;28;20399;-44
2021/07/20 11:15:51;;;;;;;5.25;3.60;;;29.50;93.80;;;;;;5015833;28;20042;-44
2021/07/20 11:18:34;;;;;;;4.30;3.30;;;29.60;93.70;;;;;;5015606;28;20042;-44
2021/07/20 11:21:05;;;;;;;5.93;3.17;;;29.70;93.60;;;;;;5015843;28;20049;-45
2021/07/20 11:23:40;;;;;;;6.25;4.20;;;29.70;93.50;;;;;;5015703;28;20590;-44
2021/07/20 11:26:09;;;;;;;4.57;3.47;;;29.80;93.60;;;;;;5014715;28;20049;-47
2021/07/20 11:28:43;;;;;;;5.55;3.60;;;29.90;93.40;;;;;;5014614;28;20503;-46
2021/07/20 11:31:25;;;;;;;5.70;3.78;;;30.00;93.10;;;;;;5014754;28;20352;-49
2021/07/20 11:34:07;;;;;;;6.30;3.20;;;30.10;92.80;;;;;;5014689;28;20624;-48
2021/07/20 11:36:39;;;;;;;6.95;3.55;;;30.10;92.70;;;;;;5014558;28;20500;-46
2021/07/20 11:39:12;;;;;;;5.53;3.00;;;30.20;92.00;;;;;;5014244;28;20046;-45
2021/07/20 11:42:04;;;;;;;9.90;3.33;;;30.20;92.00;;;;;;5014550;28;20129;-45
2021/07/20 11:44:43;;;;;;;6.07;3.58;;;30.00;92.50;;;;;;5014377;28;20038;-47
2021/07/20 11:47:19;;;;;;;6.00;3.55;;;29.90;92.60;;;;;;5014169;28;20085;-46
2021/07/20 11:50:02;;;;;;;5.97;4.25;;;29.90;93.20;;;;;;5014320;28;20110;-47
2021/07/20 11:53:21;;;;;;;5.60;3.17;;;30.00;93.00;;;;;;5014268;28;20052;-47
2021/07/20 11:55:57;;;;;;;9.57;3.70;;;29.90;93.00;;;;;;4989788;28;20488;-49
2021/07/20 11:58:44;;;;;;;6.03;3.30;;;30.10;92.90;;;;;;5012463;28;20062;-46
2021/07/20 12:01:42;;;;;;;5.32;3.20;;;30.20;93.00;;;;;;5013055;28;20050;-46
2021/07/20 12:04:41;;;;;;;7.00;4.05;;;30.10;92.70;;;;;;4996600;28;20050;-50
2021/07/20 12:07:22;;;;;;;4.13;3.15;;;30.00;92.50;;;;;;5014144;28;20481;-48
2021/07/20 12:09:59;;;;;;;9.82;3.50;;;29.90;93.00;;;;;;5014069;28;20121;-47
2021/07/20 12:12:57;;;;;;;5.20;3.45;;;29.70;93.10;;;;;;5013832;28;20115;-47
2021/07/20 12:15:28;;;;;;;4.93;3.10;;;29.60;93.10;;;;;;5014044;28;20065;-52
2021/07/20 12:18:00;;;;;;;6.50;3.78;;;29.50;93.00;;;;;;5013982;28;20050;-47
2021/07/20 12:20:29;;;;;;;6.63;4.15;;;29.40;93.10;;;;;;5012910;28;20461;-46
2021/07/20 12:22:58;;;;;;;5.97;3.78;;;29.40;92.70;;;;;;5013691;28;20045;-46
2021/07/20 12:25:28;;;;;;;6.18;3.80;;;29.50;92.90;;;;;;5013636;28;20096;-47
2021/07/20 12:27:58;;;;;;;7.28;4.07;;;29.40;92.90;;;;;;5012217;28;20530;-48
2021/07/20 12:30:28;;;;;;;4.70;3.35;;;29.40;93.00;;;;;;5012693;28;20127;-49
2021/07/20 12:32:57;;;;;;;4.43;2.80;;;29.40;92.70;;;;;;5013872;28;20042;-47
2021/07/20 12:35:28;;;;;;;8.93;4.70;;;29.50;92.70;;;;;;5013493;28;20049;-45
2021/07/20 12:38:01;;;;;;;4.57;3.22;;;29.70;92.40;;;;;;5013227;28;20100;-46
2021/07/20 12:40:30;;;;;;;4.75;2.95;;;29.70;92.00;;;;;;5012371;28;20464;-48
2021/07/20 12:43:13;;;;;;;5.25;3.40;;;29.70;91.90;;;;;;5012177;28;20489;-46
2021/07/20 12:45:44;;;;;;;4.05;2.80;;;29.80;91.90;;;;;;5012280;28;20065;-49
2021/07/20 12:48:28;;;;;;;5.18;3.65;;;29.80;91.20;;;;;;5012358;28;20052;-45
2021/07/20 12:50:57;;;;;;;5.20;3.08;;;29.80;91.50;;;;;;5013466;28;20145;-48
2021/07/20 12:53:25;;;;;;;5.38;3.30;;;29.70;90.80;;;;;;5013274;28;20112;-46
2021/07/20 12:55:53;;;;;;;6.65;3.35;;;29.70;91.00;;;;;;5013197;28;20088;-46
2021/07/20 12:58:21;;;;;;;5.38;2.60;;;29.70;91.30;;;;;;5012578;28;20064;-47
2021/07/20 13:00:49;;;;;;;5.85;3.20;;;29.60;91.00;;;;;;5012652;28;20069;-46
2021/07/20 13:03:20;;;;;;;6.38;3.15;;;29.50;90.80;;;;;;5013960;28;20559;-46
2021/07/20 13:05:48;;;;;;;4.90;3.00;;;29.60;90.90;;;;;;5013627;28;20392;-46
2021/07/20 13:08:34;;;;;;;3.20;2.50;;;29.60;90.90;;;;;;5013943;28;20472;-45
2021/07/20 13:11:03;;;;;;;7.35;3.67;;;29.70;90.60;;;;;;5013694;28;20041;-46
2021/07/20 13:13:31;;;;;;;6.10;2.75;;;29.70;90.30;;;;;;5013021;28;20066;-47
2021/07/20 13:16:05;;;;;;;4.40;2.80;;;29.80;89.50;;;;;;5011854;28;20070;-45
2021/07/20 13:18:33;;;;;;;5.10;3.08;;;29.80;90.00;;;;;;5012856;28;20042;-51
2021/07/20 13:21:19;;;;;;;4.43;2.88;;;29.90;89.50;;;;;;4997527;28;20069;-49
2021/07/20 13:23:49;;;;;;;6.20;2.80;;;29.90;90.50;;;;;;4979348;28;20509;-45
2021/07/20 13:26:26;;;;;;;6.10;2.97;;;29.80;90.50;;;;;;5012690;28;20050;-48
2021/07/20 13:29:05;;;;;;;5.15;3.72;;;29.80;90.20;;;;;;5012841;28;20559;-46
2021/07/20 13:31:38;;;;;;;6.15;3.60;;;29.70;90.30;;;;;;5013119;28;20112;-46
2021/07/20 13:34:08;;;;;;;5.93;2.95;;;29.80;90.50;;;;;;5012887;28;20054;-49
2021/07/20 13:36:38;;;;;;;6.00;3.50;;;29.70;90.30;;;;;;5012684;28;20054;-46